Terminal Aerodrome Forecast
Issued by NWS

Current Version | Previous Version | Text Only | Print | Product List | Glossary On
Versions: 1 2 3 4 5 6 7 8 9 10 11 12 13 14 15 16
000
FTUS44 KCRP 292300
TAFALI
TAF
KALI 292328Z 3000/3024 10008KT P6SM FEW040 SCT250
     FM300400 09005KT 5SM BR FEW005 SCT250
     FM300500 06004KT 3SM BR SCT005 BKN250
      TEMPO 3005/3009 1SM BR BKN005
     FM301000 02010KT P6SM BKN015 OVC025
     FM301400 03015G20KT P6SM SCT018 BKN028
     FM302000 07013KT P6SM BKN018 OVC028=

USA.gov is the U.S. government's official web portal to all federal, state and local government web resources and services.